Time;durP1;ratioP1;P1;durP2;ratioP2;P2;SDS_P1;SDS_P2;PMS_P1;PMS_P2;Temp;Humidity;BMP_temperature;BMP_pressure;BME280_temperature;BME280_humidity;BME280_pressure;Samples;Min_cycle;Max_cycle;Signal;HPM_P1;HPM_P2
2021/11/06 00:00:19;;;;;;;9.13;2.20;;;;;;;;;;5091832;28;20103;-70
2021/11/06 00:02:45;;;;;;;7.47;2.35;;;;;;;;;;5073228;28;20024;-70
2021/11/06 00:05:11;;;;;;;6.63;2.17;;;;;;;;;;5092055;28;20024;-70
2021/11/06 00:07:38;;;;;;;6.85;1.85;;;;;;;;;;5075199;28;20429;-70
2021/11/06 00:10:05;;;;;;;7.90;2.10;;;;;;;;;;5077475;28;20032;-70
2021/11/06 00:12:31;;;;;;;5.93;1.75;;;;;;;;;;5077393;28;20026;-69
2021/11/06 00:14:57;;;;;;;7.38;2.00;;;;;;;;;;5095592;28;20047;-70
2021/11/06 00:17:23;;;;;;;6.55;2.30;;;;;;;;;;5095264;28;20024;-70
2021/11/06 00:19:49;;;;;;;5.93;2.05;;;;;;;;;;5095429;28;20021;-69
2021/11/06 00:22:15;;;;;;;6.18;2.30;;;;;;;;;;5095860;28;20028;-70
2021/11/06 00:24:41;;;;;;;7.25;2.25;;;;;;;;;;5095092;28;20031;-70
2021/11/06 00:27:07;;;;;;;6.20;1.83;;;;;;;;;;5095535;28;20028;-70
2021/11/06 00:29:33;;;;;;;10.00;2.95;;;;;;;;;;5095160;28;20035;-70
2021/11/06 00:32:00;;;;;;;4.93;2.20;;;;;;;;;;5112976;28;20042;-69
2021/11/06 00:34:26;;;;;;;6.60;2.05;;;;;;;;;;5115397;28;20513;-69
2021/11/06 00:36:52;;;;;;;4.28;1.92;;;;;;;;;;5115280;28;20112;-70
2021/11/06 00:39:18;;;;;;;5.65;2.20;;;;;;;;;;5096078;28;20030;-69
2021/11/06 00:41:44;;;;;;;4.00;1.67;;;;;;;;;;5115285;28;20043;-70
2021/11/06 00:44:10;;;;;;;6.88;2.22;;;;;;;;;;5115306;28;20022;-70
2021/11/06 00:46:36;;;;;;;5.60;2.10;;;;;;;;;;5115150;28;20020;-69
2021/11/06 00:49:03;;;;;;;5.82;1.73;;;;;;;;;;5115234;28;20382;-69
2021/11/06 00:51:29;;;;;;;4.78;1.92;;;;;;;;;;5115080;28;20015;-69
2021/11/06 00:53:55;;;;;;;3.95;1.70;;;;;;;;;;5115118;28;20028;-69
2021/11/06 00:56:21;;;;;;;5.07;2.10;;;;;;;;;;5095861;28;20038;-68
2021/11/06 00:58:47;;;;;;;5.20;2.22;;;;;;;;;;5115096;28;20092;-70
2021/11/06 01:01:13;;;;;;;7.35;2.28;;;;;;;;;;5096779;28;20026;-70
2021/11/06 01:03:39;;;;;;;4.95;2.03;;;;;;;;;;5115009;28;20024;-70
2021/11/06 01:06:05;;;;;;;4.10;2.15;;;;;;;;;;5096657;28;20020;-70
2021/11/06 01:08:31;;;;;;;4.68;2.13;;;;;;;;;;5114678;28;20062;-70
2021/11/06 01:10:57;;;;;;;7.45;2.55;;;;;;;;;;5114846;28;20467;-69
2021/11/06 01:13:24;;;;;;;7.22;2.17;;;;;;;;;;5095454;28;20545;-70
2021/11/06 01:15:50;;;;;;;5.40;1.80;;;;;;;;;;5096218;28;20031;-69
2021/11/06 01:18:16;;;;;;;5.05;1.90;;;;;;;;;;5096163;28;20023;-70
2021/11/06 01:20:42;;;;;;;5.35;2.17;;;;;;;;;;5114448;28;20032;-70
2021/11/06 01:23:08;;;;;;;5.78;2.03;;;;;;;;;;5115004;28;20016;-70
2021/11/06 01:25:36;;;;;;;4.40;1.75;;;;;;;;;;5096245;28;20023;-70
2021/11/06 01:28:02;;;;;;;4.90;1.95;;;;;;;;;;5114517;28;20541;-70
2021/11/06 01:30:28;;;;;;;4.43;1.88;;;;;;;;;;5103620;28;20031;-69
2021/11/06 01:32:54;;;;;;;4.32;2.00;;;;;;;;;;5093759;28;20097;-70
2021/11/06 01:35:21;;;;;;;5.90;2.28;;;;;;;;;;5094202;28;20028;-70
2021/11/06 01:37:47;;;;;;;5.00;2.55;;;;;;;;;;5075548;28;20509;-70
2021/11/06 01:40:14;;;;;;;7.57;2.17;;;;;;;;;;5093826;28;20111;-70
2021/11/06 01:42:41;;;;;;;7.93;2.28;;;;;;;;;;5093865;28;20061;-69
2021/11/06 01:45:07;;;;;;;6.57;2.38;;;;;;;;;;5093631;28;20206;-70
2021/11/06 01:47:34;;;;;;;5.22;2.00;;;;;;;;;;5094229;28;20356;-70
2021/11/06 01:50:00;;;;;;;6.07;2.72;;;;;;;;;;5093714;28;20028;-71
2021/11/06 01:52:26;;;;;;;5.85;2.40;;;;;;;;;;5075535;28;20506;-70
2021/11/06 01:54:52;;;;;;;4.00;1.95;;;;;;;;;;5093579;28;20130;-71
2021/11/06 01:57:18;;;;;;;4.13;2.05;;;;;;;;;;5093315;28;20035;-70
2021/11/06 01:59:45;;;;;;;5.28;1.98;;;;;;;;;;5093310;28;20020;-70
2021/11/06 02:02:11;;;;;;;5.03;2.20;;;;;;;;;;5093177;28;20091;-70
2021/11/06 02:04:38;;;;;;;7.07;2.47;;;;;;;;;;5075401;28;20024;-70
2021/11/06 02:07:04;;;;;;;4.65;2.00;;;;;;;;;;5093163;28;20024;-70
2021/11/06 02:09:30;;;;;;;4.53;2.10;;;;;;;;;;5092945;28;20016;-70
2021/11/06 02:11:57;;;;;;;7.18;2.60;;;;;;;;;;5075084;28;20471;-70
2021/11/06 02:14:23;;;;;;;8.48;2.30;;;;;;;;;;5074897;28;20032;-70
2021/11/06 02:16:51;;;;;;;5.05;2.10;;;;;;;;;;5092922;28;20111;-70
2021/11/06 02:19:18;;;;;;;5.53;2.53;;;;;;;;;;5093071;28;20556;-70
2021/11/06 02:21:46;;;;;;;4.20;2.17;;;;;;;;;;5093439;28;20111;-70
2021/11/06 02:24:12;;;;;;;5.50;2.55;;;;;;;;;;5093092;28;20024;-70
2021/11/06 02:26:38;;;;;;;4.70;2.38;;;;;;;;;;5092799;28;20023;-70
2021/11/06 02:29:04;;;;;;;5.32;2.35;;;;;;;;;;5092963;28;20104;-70
2021/11/06 02:31:31;;;;;;;5.10;2.63;;;;;;;;;;5093636;28;20042;-70
2021/11/06 02:33:57;;;;;;;4.72;2.60;;;;;;;;;;5094789;28;20424;-70
2021/11/06 02:36:23;;;;;;;4.63;2.30;;;;;;;;;;5113087;28;20030;-70
2021/11/06 02:38:50;;;;;;;4.60;2.20;;;;;;;;;;5109276;28;20031;-69
2021/11/06 02:41:16;;;;;;;5.38;2.50;;;;;;;;;;5074462;28;20040;-70
2021/11/06 02:43:42;;;;;;;4.20;2.25;;;;;;;;;;5092662;28;20027;-69
2021/11/06 02:46:08;;;;;;;4.55;2.20;;;;;;;;;;5092561;28;20020;-70
2021/11/06 02:48:34;;;;;;;6.32;2.28;;;;;;;;;;5092620;28;20032;-69
2021/11/06 02:51:00;;;;;;;4.25;2.22;;;;;;;;;;5074153;28;20139;-69
2021/11/06 02:53:26;;;;;;;4.50;2.03;;;;;;;;;;5092182;28;20028;-70
2021/11/06 02:55:52;;;;;;;4.63;2.08;;;;;;;;;;5092535;28;20676;-69
2021/11/06 02:58:18;;;;;;;4.43;2.33;;;;;;;;;;5092191;28;20490;-69
2021/11/06 03:00:44;;;;;;;3.90;2.35;;;;;;;;;;5092197;28;20116;-69
2021/11/06 03:03:11;;;;;;;5.43;2.55;;;;;;;;;;5092372;28;20102;-70
2021/11/06 03:05:37;;;;;;;4.30;2.13;;;;;;;;;;5092179;28;20465;-70
2021/11/06 03:08:04;;;;;;;4.97;2.30;;;;;;;;;;5091991;28;20020;-69
2021/11/06 03:10:30;;;;;;;4.93;2.30;;;;;;;;;;5091990;28;20039;-69
2021/11/06 03:12:56;;;;;;;5.10;2.60;;;;;;;;;;5092551;28;20031;-69
2021/11/06 03:15:22;;;;;;;4.75;2.53;;;;;;;;;;5073782;28;20036;-69
2021/11/06 03:17:48;;;;;;;7.22;2.20;;;;;;;;;;5092047;28;20107;-69
2021/11/06 03:20:15;;;;;;;4.88;2.28;;;;;;;;;;5092020;28;20074;-68
2021/11/06 03:22:42;;;;;;;6.60;2.45;;;;;;;;;;5091964;28;20046;-69
2021/11/06 03:25:09;;;;;;;4.15;2.10;;;;;;;;;;5092077;28;20069;-69
2021/11/06 03:27:35;;;;;;;5.80;2.30;;;;;;;;;;5092217;28;20021;-68
2021/11/06 03:30:01;;;;;;;6.25;2.30;;;;;;;;;;5078438;28;20021;-69
2021/11/06 03:32:27;;;;;;;4.45;2.30;;;;;;;;;;5073722;28;20051;-69
2021/11/06 03:34:53;;;;;;;5.85;2.53;;;;;;;;;;5073948;28;20108;-69
2021/11/06 03:37:20;;;;;;;5.55;2.00;;;;;;;;;;5091920;28;20394;-68
2021/11/06 03:39:46;;;;;;;4.13;2.10;;;;;;;;;;5073792;28;20020;-69
2021/11/06 03:42:12;;;;;;;4.50;2.10;;;;;;;;;;5092984;28;20039;-69
2021/11/06 03:44:39;;;;;;;4.18;2.10;;;;;;;;;;5096060;28;20478;-69
2021/11/06 03:47:05;;;;;;;4.15;1.88;;;;;;;;;;5096604;28;20485;-69
2021/11/06 03:49:32;;;;;;;5.32;2.10;;;;;;;;;;5077760;28;20016;-69
2021/11/06 03:51:58;;;;;;;3.45;1.73;;;;;;;;;;5095978;28;20073;-69
2021/11/06 03:54:24;;;;;;;4.90;2.42;;;;;;;;;;5095667;28;20020;-69
2021/11/06 03:56:50;;;;;;;4.55;2.30;;;;;;;;;;5095803;28;20030;-68
2021/11/06 03:59:16;;;;;;;3.75;1.98;;;;;;;;;;5095692;28;20348;-69
2021/11/06 04:01:42;;;;;;;4.05;2.13;;;;;;;;;;5095800;28;20020;-70
2021/11/06 04:04:09;;;;;;;4.13;1.90;;;;;;;;;;5078108;28;20144;-70
2021/11/06 04:06:35;;;;;;;4.20;1.95;;;;;;;;;;5095630;28;20069;-70
2021/11/06 04:09:01;;;;;;;3.75;1.98;;;;;;;;;;5095910;28;20027;-70
2021/11/06 04:11:27;;;;;;;3.50;1.85;;;;;;;;;;5095559;28;20028;-70
2021/11/06 04:13:53;;;;;;;4.13;2.00;;;;;;;;;;5095600;28;20042;-70
2021/11/06 04:16:19;;;;;;;4.13;1.92;;;;;;;;;;5095467;28;20224;-70
2021/11/06 04:18:46;;;;;;;3.80;2.17;;;;;;;;;;5095499;28;20020;-69
2021/11/06 04:21:12;;;;;;;4.10;2.00;;;;;;;;;;5096012;28;20024;-70
2021/11/06 04:23:38;;;;;;;4.38;2.20;;;;;;;;;;5095451;28;20032;-70
2021/11/06 04:26:04;;;;;;;6.55;1.98;;;;;;;;;;5095179;28;20063;-70
2021/11/06 04:28:30;;;;;;;4.40;2.30;;;;;;;;;;5076750;28;20499;-70
2021/11/06 04:30:56;;;;;;;3.80;1.88;;;;;;;;;;5094884;28;20028;-70
2021/11/06 04:33:22;;;;;;;4.15;2.08;;;;;;;;;;5093763;28;20498;-70
2021/11/06 04:35:48;;;;;;;3.95;2.05;;;;;;;;;;5094885;28;20036;-69
2021/11/06 04:38:14;;;;;;;3.67;1.73;;;;;;;;;;5113762;28;20066;-70
2021/11/06 04:40:41;;;;;;;5.90;2.22;;;;;;;;;;5097032;28;20020;-70
2021/11/06 04:43:07;;;;;;;4.38;2.35;;;;;;;;;;5115573;28;20020;-69
2021/11/06 04:45:33;;;;;;;4.80;2.20;;;;;;;;;;5115487;28;20027;-70
2021/11/06 04:47:59;;;;;;;4.63;2.10;;;;;;;;;;5115379;28;20643;-69
2021/11/06 04:50:25;;;;;;;6.68;2.42;;;;;;;;;;5097190;28;20217;-70
2021/11/06 04:52:51;;;;;;;4.93;1.90;;;;;;;;;;5093741;28;20031;-70
2021/11/06 04:55:18;;;;;;;8.30;2.20;;;;;;;;;;5114011;28;20067;-70
2021/11/06 04:57:45;;;;;;;13.15;2.67;;;;;;;;;;5113781;28;20501;-70
2021/11/06 05:00:12;;;;;;;8.52;2.25;;;;;;;;;;5114505;28;20638;-70
2021/11/06 05:02:38;;;;;;;9.35;2.60;;;;;;;;;;5114558;28;20380;-71
2021/11/06 05:05:06;;;;;;;7.15;2.10;;;;;;;;;;5115007;28;20057;-68
2021/11/06 05:07:32;;;;;;;8.18;2.00;;;;;;;;;;5114955;28;20019;-68
2021/11/06 05:09:58;;;;;;;4.40;2.00;;;;;;;;;;5115129;28;20027;-68
2021/11/06 05:12:24;;;;;;;7.65;2.00;;;;;;;;;;5096963;28;20084;-68
2021/11/06 05:14:50;;;;;;;7.40;2.20;;;;;;;;;;5115230;28;20035;-68
2021/11/06 05:17:18;;;;;;;6.30;2.05;;;;;;;;;;5114831;28;20015;-69
2021/11/06 05:19:44;;;;;;;4.38;2.20;;;;;;;;;;5114082;28;20012;-68
2021/11/06 05:22:11;;;;;;;4.32;2.28;;;;;;;;;;5114837;28;20031;-69
2021/11/06 05:24:38;;;;;;;6.60;2.20;;;;;;;;;;5096535;28;20034;-69
2021/11/06 05:27:05;;;;;;;4.93;2.50;;;;;;;;;;5114869;28;20079;-69
2021/11/06 05:29:31;;;;;;;4.95;2.38;;;;;;;;;;5114846;28;20026;-69
2021/11/06 05:31:57;;;;;;;6.90;2.20;;;;;;;;;;5096351;28;20040;-70
2021/11/06 05:34:23;;;;;;;7.65;2.30;;;;;;;;;;5114521;28;20035;-70
2021/11/06 05:36:49;;;;;;;4.72;2.42;;;;;;;;;;5114641;28;20072;-69
2021/11/06 05:39:15;;;;;;;4.35;2.00;;;;;;;;;;5114911;28;20022;-70
2021/11/06 05:41:42;;;;;;;4.68;2.33;;;;;;;;;;5114545;28;20028;-70
2021/11/06 05:44:08;;;;;;;5.45;2.13;;;;;;;;;;5114353;28;20019;-69
2021/11/06 05:46:34;;;;;;;4.68;2.17;;;;;;;;;;5114357;28;20027;-71
2021/11/06 05:49:00;;;;;;;4.10;2.00;;;;;;;;;;5095532;28;20027;-69
2021/11/06 05:51:26;;;;;;;6.68;2.20;;;;;;;;;;5113880;28;20019;-68
2021/11/06 05:53:52;;;;;;;4.03;2.00;;;;;;;;;;5113600;28;20425;-70
2021/11/06 05:56:19;;;;;;;4.05;2.33;;;;;;;;;;5113574;28;20487;-69
2021/11/06 05:58:46;;;;;;;4.45;2.03;;;;;;;;;;5095135;28;20058;-69
2021/11/06 06:01:12;;;;;;;5.15;2.25;;;;;;;;;;5113863;28;20059;-68
2021/11/06 06:03:38;;;;;;;5.57;2.53;;;;;;;;;;5113805;28;20015;-70
2021/11/06 06:06:04;;;;;;;7.13;2.33;;;;;;;;;;5113004;28;20027;-69
2021/11/06 06:08:31;;;;;;;5.38;2.42;;;;;;;;;;5113962;28;20020;-70
2021/11/06 06:10:57;;;;;;;5.35;2.72;;;;;;;;;;5095601;28;20606;-69
2021/11/06 06:13:25;;;;;;;7.30;2.60;;;;;;;;;;5095499;28;20028;-70
2021/11/06 06:15:51;;;;;;;7.32;2.80;;;;;;;;;;5113779;28;20531;-70
2021/11/06 06:18:17;;;;;;;7.13;2.63;;;;;;;;;;5113869;28;20027;-70
2021/11/06 06:20:43;;;;;;;5.07;2.47;;;;;;;;;;5095486;28;20475;-70
2021/11/06 06:23:10;;;;;;;4.93;2.45;;;;;;;;;;5113840;28;20049;-70
2021/11/06 06:25:36;;;;;;;9.43;2.50;;;;;;;;;;5113674;28;20059;-69
2021/11/06 06:28:04;;;;;;;4.72;2.20;;;;;;;;;;5113639;28;20023;-69
2021/11/06 06:30:30;;;;;;;5.07;2.38;;;;;;;;;;5113765;28;20027;-68
2021/11/06 06:32:56;;;;;;;5.32;2.63;;;;;;;;;;5094985;28;20461;-70
2021/11/06 06:35:23;;;;;;;4.28;2.40;;;;;;;;;;5113331;28;20031;-69
2021/11/06 06:37:49;;;;;;;5.80;2.50;;;;;;;;;;5097816;28;20499;-68
2021/11/06 06:40:16;;;;;;;4.90;2.35;;;;;;;;;;5092644;28;20021;-68
2021/11/06 06:42:42;;;;;;;4.43;2.25;;;;;;;;;;5073790;28;20024;-72
2021/11/06 06:45:09;;;;;;;6.30;2.45;;;;;;;;;;5092772;28;20085;-72
2021/11/06 06:47:35;;;;;;;8.50;2.65;;;;;;;;;;5092847;28;20020;-70
2021/11/06 06:50:01;;;;;;;4.97;2.47;;;;;;;;;;5074957;28;20020;-71
2021/11/06 06:52:27;;;;;;;5.15;2.30;;;;;;;;;;5073543;28;20047;-70
2021/11/06 06:54:53;;;;;;;4.47;2.58;;;;;;;;;;5091732;28;20024;-70
2021/11/06 06:57:19;;;;;;;4.28;2.47;;;;;;;;;;5091980;28;20031;-69
2021/11/06 06:59:45;;;;;;;4.25;2.38;;;;;;;;;;5074424;28;20092;-68
2021/11/06 07:02:12;;;;;;;5.35;2.83;;;;;;;;;;5092081;28;20474;-70
2021/11/06 07:04:38;;;;;;;6.53;1.95;;;;;;;;;;5074368;28;20031;-70
2021/11/06 07:07:04;;;;;;;6.88;2.50;;;;;;;;;;5073747;28;20471;-72
2021/11/06 07:09:30;;;;;;;4.43;2.08;;;;;;;;;;5091794;28;20027;-72
2021/11/06 07:11:56;;;;;;;4.57;1.90;;;;;;;;;;5092208;28;20028;-72
2021/11/06 07:14:22;;;;;;;3.85;1.60;;;;;;;;;;5092552;28;20390;-73
2021/11/06 07:16:49;;;;;;;6.03;1.77;;;;;;;;;;5092171;28;20028;-73
2021/11/06 07:19:17;;;;;;;5.40;1.98;;;;;;;;;;5074454;28;20024;-73
2021/11/06 07:21:43;;;;;;;3.83;1.40;;;;;;;;;;5092434;28;20024;-73
2021/11/06 07:24:09;;;;;;;3.00;1.50;;;;;;;;;;5074194;28;20115;-72
2021/11/06 07:26:36;;;;;;;4.18;1.60;;;;;;;;;;5092345;28;20028;-73
2021/11/06 07:29:02;;;;;;;4.07;1.90;;;;;;;;;;5092381;28;20031;-73
2021/11/06 07:31:28;;;;;;;3.53;1.80;;;;;;;;;;5074242;28;20028;-72
2021/11/06 07:33:54;;;;;;;4.95;2.15;;;;;;;;;;5092429;28;20081;-73
2021/11/06 07:36:21;;;;;;;3.53;1.52;;;;;;;;;;5092166;28;20490;-73
2021/11/06 07:38:47;;;;;;;3.75;1.90;;;;;;;;;;5092057;28;20024;-73
2021/11/06 07:41:13;;;;;;;6.55;2.13;;;;;;;;;;5073914;28;20113;-73
2021/11/06 07:43:40;;;;;;;3.13;1.50;;;;;;;;;;5092168;28;20016;-73
2021/11/06 07:46:06;;;;;;;3.10;1.27;;;;;;;;;;5091890;28;20065;-73
2021/11/06 07:48:32;;;;;;;2.78;1.20;;;;;;;;;;5091956;28;20020;-73
2021/11/06 07:50:59;;;;;;;2.95;1.50;;;;;;;;;;5073936;28;20025;-73
2021/11/06 07:53:25;;;;;;;3.38;1.50;;;;;;;;;;5092028;28;20051;-73
2021/11/06 07:55:51;;;;;;;3.08;1.40;;;;;;;;;;5091842;28;20123;-72
2021/11/06 07:58:17;;;;;;;3.20;1.48;;;;;;;;;;5073529;28;20027;-67
2021/11/06 08:00:43;;;;;;;2.95;1.60;;;;;;;;;;5073674;28;20052;-68
2021/11/06 08:03:10;;;;;;;4.15;1.85;;;;;;;;;;5073232;28;20483;-67
2021/11/06 08:05:36;;;;;;;4.80;2.08;;;;;;;;;;5091295;28;20048;-68
2021/11/06 08:08:03;;;;;;;3.10;1.50;;;;;;;;;;5091752;28;20024;-71
2021/11/06 08:10:29;;;;;;;3.97;2.00;;;;;;;;;;5073950;28;20053;-71
2021/11/06 08:12:59;;;;;;;5.38;1.60;;;;;;;;;;5091959;28;20024;-71
2021/11/06 08:15:25;;;;;;;4.60;1.70;;;;;;;;;;5073650;28;20643;-71
2021/11/06 08:17:53;;;;;;;5.20;2.05;;;;;;;;;;5091697;28;20647;-70
2021/11/06 08:20:19;;;;;;;11.77;2.03;;;;;;;;;;5091946;28;20020;-71
2021/11/06 08:22:45;;;;;;;4.70;2.00;;;;;;;;;;5073548;28;20023;-70
2021/11/06 08:25:16;;;;;;;4.30;1.92;;;;;;;;;;5091667;28;20031;-69
2021/11/06 08:27:42;;;;;;;4.97;2.00;;;;;;;;;;5073708;28;20024;-70
2021/11/06 08:30:08;;;;;;;5.05;2.45;;;;;;;;;;5095464;28;20028;-71
2021/11/06 08:32:35;;;;;;;4.57;2.30;;;;;;;;;;5077055;28;20079;-71
2021/11/06 08:35:01;;;;;;;4.90;2.47;;;;;;;;;;5095321;28;20074;-72
2021/11/06 08:37:27;;;;;;;5.15;2.22;;;;;;;;;;5094816;28;20110;-71
2021/11/06 08:39:53;;;;;;;7.18;2.53;;;;;;;;;;5095211;28;20126;-70
2021/11/06 08:42:19;;;;;;;4.03;2.10;;;;;;;;;;5095028;28;20403;-73
2021/11/06 08:44:45;;;;;;;4.05;1.83;;;;;;;;;;5094638;28;20077;-72
2021/11/06 08:47:11;;;;;;;6.18;1.85;;;;;;;;;;5076340;28;20020;-72
2021/11/06 08:49:37;;;;;;;4.63;2.10;;;;;;;;;;5076120;28;20123;-73
2021/11/06 08:52:04;;;;;;;4.38;2.17;;;;;;;;;;5076291;28;20107;-72
2021/11/06 08:54:30;;;;;;;5.32;2.08;;;;;;;;;;5094354;28;20094;-73
2021/11/06 08:56:56;;;;;;;7.05;2.25;;;;;;;;;;5075910;28;20092;-72
2021/11/06 08:59:22;;;;;;;5.47;2.22;;;;;;;;;;5076014;28;20020;-73
2021/11/06 09:01:50;;;;;;;3.38;1.85;;;;;;;;;;5076385;28;20479;-71
2021/11/06 09:04:16;;;;;;;4.10;1.85;;;;;;;;;;5094623;28;20024;-72
2021/11/06 09:06:44;;;;;;;4.22;2.10;;;;;;;;;;5095039;28;20474;-71
2021/11/06 09:09:12;;;;;;;4.57;2.00;;;;;;;;;;5076673;28;20387;-71
2021/11/06 09:11:38;;;;;;;3.85;1.75;;;;;;;;;;5094764;28;20028;-71
2021/11/06 09:14:05;;;;;;;5.05;2.10;;;;;;;;;;5094827;28;20478;-71
2021/11/06 09:16:31;;;;;;;4.00;1.73;;;;;;;;;;5094490;28;20499;-71
2021/11/06 09:18:58;;;;;;;5.38;2.35;;;;;;;;;;5094542;28;20061;-72
2021/11/06 09:21:26;;;;;;;4.10;2.20;;;;;;;;;;5076388;28;20114;-70
2021/11/06 09:23:52;;;;;;;3.50;1.95;;;;;;;;;;5094494;28;20016;-70
2021/11/06 09:26:19;;;;;;;7.85;2.45;;;;;;;;;;5094242;28;20072;-70
2021/11/06 09:28:47;;;;;;;7.38;2.40;;;;;;;;;;5093817;28;20024;-69
2021/11/06 09:31:14;;;;;;;5.75;2.17;;;;;;;;;;5093820;28;20016;-70
2021/11/06 09:33:41;;;;;;;6.10;2.13;;;;;;;;;;5093524;28;20048;-69
2021/11/06 09:36:07;;;;;;;5.40;2.33;;;;;;;;;;5093539;28;20057;-69
2021/11/06 09:38:33;;;;;;;4.88;2.00;;;;;;;;;;5093786;28;20162;-70
2021/11/06 09:41:00;;;;;;;5.15;2.72;;;;;;;;;;5093669;28;20035;-69
2021/11/06 09:43:27;;;;;;;7.15;2.13;;;;;;;;;;5093687;28;20379;-70
2021/11/06 09:45:55;;;;;;;6.57;2.72;;;;;;;;;;5093387;28;20027;-70
2021/11/06 09:48:23;;;;;;;6.78;2.38;;;;;;;;;;5075417;28;20115;-69
2021/11/06 09:50:51;;;;;;;5.40;2.30;;;;;;;;;;5075155;28;20024;-70
2021/11/06 09:53:18;;;;;;;5.35;2.38;;;;;;;;;;5093246;28;20024;-70
2021/11/06 09:55:44;;;;;;;4.55;2.00;;;;;;;;;;5093027;28;20028;-69
2021/11/06 09:58:10;;;;;;;4.95;2.00;;;;;;;;;;5093268;28;20499;-70
2021/11/06 10:00:38;;;;;;;3.85;2.05;;;;;;;;;;5093306;28;20498;-70
2021/11/06 10:03:04;;;;;;;5.03;1.60;;;;;;;;;;5093319;28;20060;-70
2021/11/06 10:05:46;;;;;;;9.63;1.88;;;;;;;;;;5093633;28;20117;-71
2021/11/06 10:08:17;;;;;;;8.73;2.10;;;;;;;;;;5075546;28;20447;-71
2021/11/06 10:10:44;;;;;;;6.30;1.52;;;;;;;;;;5093883;28;20035;-71
2021/11/06 10:13:10;;;;;;;8.88;1.98;;;;;;;;;;5093435;28;20016;-70
2021/11/06 10:15:41;;;;;;;6.57;2.22;;;;;;;;;;5074901;28;20131;-71
2021/11/06 10:18:21;;;;;;;8.13;2.40;;;;;;;;;;5093339;28;20034;-71
2021/11/06 10:20:49;;;;;;;5.50;1.85;;;;;;;;;;5075324;28;20024;-71
2021/11/06 10:23:16;;;;;;;6.30;2.17;;;;;;;;;;5075018;28;20119;-71
2021/11/06 10:25:42;;;;;;;6.18;2.67;;;;;;;;;;5093468;28;20428;-72
2021/11/06 10:28:09;;;;;;;7.65;2.83;;;;;;;;;;5093301;28;20026;-72
2021/11/06 10:30:37;;;;;;;7.28;2.42;;;;;;;;;;5093061;28;20032;-71
2021/11/06 10:33:10;;;;;;;6.90;2.20;;;;;;;;;;5074673;28;20055;-72
2021/11/06 10:35:38;;;;;;;7.18;2.60;;;;;;;;;;5092886;28;20036;-72
2021/11/06 10:38:05;;;;;;;7.55;2.40;;;;;;;;;;5092679;28;20073;-71
2021/11/06 10:40:34;;;;;;;6.10;1.95;;;;;;;;;;5099240;27;20082;-72
2021/11/06 10:43:02;;;;;;;5.35;2.10;;;;;;;;;;5086065;28;20149;-72
2021/11/06 10:45:30;;;;;;;9.68;2.03;;;;;;;;;;5111078;28;20030;-72
2021/11/06 10:48:05;;;;;;;11.43;2.45;;;;;;;;;;5111548;28;20526;-72
2021/11/06 10:50:40;;;;;;;7.10;2.17;;;;;;;;;;5109339;28;20028;-70
2021/11/06 10:53:07;;;;;;;10.60;2.28;;;;;;;;;;5091979;28;20020;-71
2021/11/06 10:55:36;;;;;;;5.82;2.13;;;;;;;;;;5091645;28;20038;-70
2021/11/06 10:58:04;;;;;;;9.50;2.20;;;;;;;;;;5091814;28;20501;-70
2021/11/06 11:00:30;;;;;;;4.70;1.90;;;;;;;;;;5091965;28;20174;-71
2021/11/06 11:03:16;;;;;;;12.57;2.22;;;;;;;;;;5091533;28;20083;-70
2021/11/06 11:05:42;;;;;;;10.18;2.55;;;;;;;;;;5091596;28;20031;-70
2021/11/06 11:08:15;;;;;;;8.57;2.10;;;;;;;;;;5092416;28;20539;-71
2021/11/06 11:10:41;;;;;;;;;;;;;;;;;;5091935;28;20054;-71
2021/11/06 11:13:07;;;;;;;8.77;2.28;;;;;;;;;;5090406;28;20418;-71
2021/11/06 11:15:34;;;;;;;5.60;2.10;;;;;;;;;;5091760;28;20032;-71
2021/11/06 11:18:00;;;;;;;7.38;1.98;;;;;;;;;;5073773;28;20024;-71
2021/11/06 11:20:27;;;;;;;6.10;2.03;;;;;;;;;;5091951;28;20024;-72
2021/11/06 11:23:24;;;;;;;4.53;2.22;;;;;;;;;;5073371;28;20597;-71
2021/11/06 11:25:50;;;;;;;15.48;2.17;;;;;;;;;;5079286;28;20039;-69
2021/11/06 11:28:17;;;;;;;9.90;2.35;;;;;;;;;;5073035;28;20062;-69
2021/11/06 11:30:43;;;;;;;8.65;2.20;;;;;;;;;;5073173;28;20020;-71
2021/11/06 11:33:10;;;;;;;12.85;2.47;;;;;;;;;;5121912;28;20047;-70
2021/11/06 11:35:36;;;;;;;9.30;2.13;;;;;;;;;;5116892;28;20040;-70
2021/11/06 11:38:03;;;;;;;14.48;2.60;;;;;;;;;;5113782;28;20026;-70
2021/11/06 11:40:31;;;;;;;7.00;2.28;;;;;;;;;;5093731;28;20011;-69
2021/11/06 11:43:16;;;;;;;7.38;2.67;;;;;;;;;;5092682;28;20020;-68
2021/11/06 11:45:57;;;;;;;12.85;2.33;;;;;;;;;;5112031;28;20108;-69
2021/11/06 11:48:24;;;;;;;11.27;2.70;;;;;;;;;;5111591;28;20031;-69
2021/11/06 11:50:51;;;;;;;11.13;2.03;;;;;;;;;;5111634;28;20051;-69
2021/11/06 11:53:30;;;;;;;5.72;1.90;;;;;;;;;;5111712;28;20035;-68
2021/11/06 11:56:05;;;;;;;5.07;1.90;;;;;;;;;;5108936;28;20552;-69
2021/11/06 11:58:39;;;;;;;4.07;2.03;;;;;;;;;;5109224;28;20040;-69
2021/11/06 12:01:05;;;;;;;7.22;2.20;;;;;;;;;;5073222;28;20020;-69
2021/11/06 12:03:38;;;;;;;4.32;1.70;;;;;;;;;;5074542;28;20021;-69
2021/11/06 12:06:23;;;;;;;6.88;2.33;;;;;;;;;;5076891;28;20020;-70
2021/11/06 12:08:50;;;;;;;17.50;2.13;;;;;;;;;;5076974;28;20050;-70
2021/11/06 12:11:18;;;;;;;8.45;2.30;;;;;;;;;;5095473;28;20020;-69
2021/11/06 12:13:50;;;;;;;8.82;1.95;;;;;;;;;;5095737;28;20028;-70
2021/11/06 12:16:18;;;;;;;5.95;2.00;;;;;;;;;;5095931;28;20391;-69
2021/11/06 12:18:46;;;;;;;13.27;2.00;;;;;;;;;;5094639;28;20032;-70
2021/11/06 12:23:41;;;;;;;6.78;1.80;;;;;;;;;;5094767;28;20027;-70
2021/11/06 12:26:14;;;;;;;9.50;1.70;;;;;;;;;;5095258;28;20046;-70
2021/11/06 12:28:41;;;;;;;5.70;2.17;;;;;;;;;;5077146;28;20107;-70
2021/11/06 12:31:26;;;;;;;4.15;1.70;;;;;;;;;;5115544;28;20023;-69
2021/11/06 12:33:53;;;;;;;3.75;1.70;;;;;;;;;;5078462;28;20452;-70
2021/11/06 12:36:21;;;;;;;5.05;1.83;;;;;;;;;;5076205;28;20512;-69
2021/11/06 12:38:47;;;;;;;16.67;1.98;;;;;;;;;;5085693;27;20121;-70
2021/11/06 12:41:13;;;;;;;8.25;2.10;;;;;;;;;;5116440;27;20032;-70
2021/11/06 12:43:52;;;;;;;12.15;1.83;;;;;;;;;;5095084;28;20015;-69
2021/11/06 12:46:22;;;;;;;33.45;2.30;;;;;;;;;;5095163;28;20057;-70
2021/11/06 12:48:48;;;;;;;7.65;1.58;;;;;;;;;;5114235;28;20111;-69
2021/11/06 12:51:19;;;;;;;5.57;1.80;;;;;;;;;;5096857;28;20061;-70
2021/11/06 12:53:49;;;;;;;8.82;1.70;;;;;;;;;;5115449;28;20049;-69
2021/11/06 12:56:20;;;;;;;12.73;2.17;;;;;;;;;;5095731;28;20398;-70
2021/11/06 12:58:48;;;;;;;5.55;1.80;;;;;;;;;;5114990;28;20618;-69
2021/11/06 13:01:15;;;;;;;6.40;1.67;;;;;;;;;;5115268;28;20092;-70
2021/11/06 13:03:44;;;;;;;4.95;1.63;;;;;;;;;;5097044;28;20026;-70
2021/11/06 13:06:18;;;;;;;6.20;1.40;;;;;;;;;;5115095;28;20466;-69
2021/11/06 13:08:59;;;;;;;3.90;1.40;;;;;;;;;;5115186;28;20030;-69
2021/11/06 13:11:25;;;;;;;5.80;1.83;;;;;;;;;;5115082;28;20024;-69
2021/11/06 13:13:52;;;;;;;3.53;1.60;;;;;;;;;;5096389;28;20111;-69
2021/11/06 13:16:18;;;;;;;5.72;1.70;;;;;;;;;;5114897;28;20486;-69
2021/11/06 13:18:45;;;;;;;4.13;1.92;;;;;;;;;;5114845;28;20069;-72
2021/11/06 13:21:11;;;;;;;7.38;1.70;;;;;;;;;;5115035;28;20608;-71
2021/11/06 13:23:37;;;;;;;3.38;1.40;;;;;;;;;;5114749;28;20049;-70
2021/11/06 13:26:05;;;;;;;7.70;1.85;;;;;;;;;;5096309;28;20657;-71
2021/11/06 13:28:31;;;;;;;3.40;1.40;;;;;;;;;;5114734;28;20030;-70
2021/11/06 13:30:59;;;;;;;45.15;10.48;;;;;;;;;;5114490;28;20491;-69
2021/11/06 13:33:25;;;;;;;277.42;64.30;;;;;;;;;;5114364;28;20043;-69
2021/11/06 13:35:51;;;;;;;185.75;44.22;;;;;;;;;;5096233;28;20424;-69
2021/11/06 13:38:34;;;;;;;78.88;22.35;;;;;;;;;;5114527;28;20024;-70
2021/11/06 13:41:19;;;;;;;70.40;17.45;;;;;;;;;;5095994;28;20030;-71
2021/11/06 13:43:48;;;;;;;66.28;17.33;;;;;;;;;;5114345;28;20103;-70
2021/11/06 13:46:17;;;;;;;69.35;17.95;;;;;;;;;;5114239;28;20023;-70
2021/11/06 13:48:49;;;;;;;65.20;17.02;;;;;;;;;;5113859;28;20023;-70
2021/11/06 13:51:20;;;;;;;54.75;15.75;;;;;;;;;;5112409;28;20022;-71
2021/11/06 13:54:25;;;;;;;49.17;15.35;;;;;;;;;;5112486;28;20023;-70
2021/11/06 13:56:56;;;;;;;64.30;15.85;;;;;;;;;;4993372;28;20038;-71
2021/11/06 13:59:30;;;;;;;57.50;14.20;;;;;;;;;;5008808;28;20022;-70
2021/11/06 14:01:56;;;;;;;47.67;14.13;;;;;;;;;;5049562;28;20490;-69
2021/11/06 14:04:22;;;;;;;53.67;13.27;;;;;;;;;;5091377;28;20044;-70
2021/11/06 14:06:50;;;;;;;45.60;12.98;;;;;;;;;;5112565;28;20055;-71
2021/11/06 14:09:17;;;;;;;48.58;13.68;;;;;;;;;;5092597;28;20068;-70
2021/11/06 14:11:53;;;;;;;47.45;13.70;;;;;;;;;;5112263;28;20031;-70
2021/11/06 14:14:24;;;;;;;36.65;11.65;;;;;;;;;;5113663;28;20024;-70
2021/11/06 14:17:04;;;;;;;35.50;10.70;;;;;;;;;;5092491;28;20108;-71
2021/11/06 14:19:31;;;;;;;43.95;11.68;;;;;;;;;;5094304;28;20012;-70
2021/11/06 14:21:58;;;;;;;36.00;10.88;;;;;;;;;;5093774;28;20024;-70
2021/11/06 14:24:32;;;;;;;48.00;10.98;;;;;;;;;;5093958;28;20624;-71
2021/11/06 14:27:00;;;;;;;44.65;10.77;;;;;;;;;;5109395;27;20035;-71
2021/11/06 14:29:27;;;;;;;33.25;10.07;;;;;;;;;;5124534;27;20127;-70
2021/11/06 14:31:54;;;;;;;44.22;11.45;;;;;;;;;;5117382;27;20043;-70
2021/11/06 14:34:23;;;;;;;44.70;11.27;;;;;;;;;;5099110;28;20098;-71
2021/11/06 14:36:54;;;;;;;39.03;9.45;;;;;;;;;;5112578;28;20063;-68
2021/11/06 14:39:20;;;;;;;28.63;7.72;;;;;;;;;;5113376;28;20024;-67
2021/11/06 14:42:05;;;;;;;31.55;8.45;;;;;;;;;;5094153;28;20497;-68
2021/11/06 14:44:42;;;;;;;23.90;7.40;;;;;;;;;;5113023;28;20054;-67